Time;durP1;ratioP1;P1;durP2;ratioP2;P2;SDS_P1;SDS_P2;PMS_P1;PMS_P2;Temp;Humidity;BMP_temperature;BMP_pressure;BME280_temperature;BME280_humidity;BME280_pressure;Samples;Min_cycle;Max_cycle;Signal;HPM_P1;HPM_P2
2023/02/27 00:02:19;;;;;;;1.55;1.45;;;;;;;;;;5037082;28;20317;-82
2023/02/27 00:04:46;;;;;;;1.80;1.70;;;;;;;;;;5036483;28;20212;-81
2023/02/27 00:07:14;;;;;;;1.85;1.45;;;;;;;;;;5036609;28;20311;-83
2023/02/27 00:09:43;;;;;;;1.58;1.48;;;;;;;;;;5036232;28;20683;-83
2023/02/27 00:12:11;;;;;;;1.23;1.15;;;;;;;;;;5036511;28;20591;-83
2023/02/27 00:14:39;;;;;;;1.30;1.15;;;;;;;;;;5036759;28;20210;-80
2023/02/27 00:17:06;;;;;;;1.13;1.02;;;;;;;;;;5036233;28;20305;-81
2023/02/27 00:19:34;;;;;;;1.20;1.10;;;;;;;;;;5035058;28;20335;-83
2023/02/27 00:22:01;;;;;;;1.00;0.95;;;;;;;;;;5035763;28;20237;-82
2023/02/27 00:24:29;;;;;;;1.00;1.00;;;;;;;;;;5035650;28;20203;-81
2023/02/27 00:26:58;;;;;;;2.75;1.02;;;;;;;;;;5051116;28;20297;-83
2023/02/27 00:29:25;;;;;;;2.10;1.23;;;;;;;;;;5055461;28;20603;-81
2023/02/27 00:31:53;;;;;;;1.98;1.10;;;;;;;;;;5055860;28;20285;-81
2023/02/27 00:34:20;;;;;;;1.27;1.20;;;;;;;;;;5055900;28;20288;-83
2023/02/27 00:36:48;;;;;;;1.00;0.98;;;;;;;;;;5054652;28;20244;-82
2023/02/27 00:39:15;;;;;;;1.20;1.15;;;;;;;;;;5054942;28;20320;-81
2023/02/27 00:41:43;;;;;;;1.45;0.93;;;;;;;;;;5055409;28;20288;-83
2023/02/27 00:44:12;;;;;;;1.23;1.20;;;;;;;;;;5055043;28;20293;-82
2023/02/27 00:46:39;;;;;;;1.38;1.08;;;;;;;;;;5054592;28;20206;-82
2023/02/27 00:49:07;;;;;;;2.28;1.00;;;;;;;;;;5053527;28;20784;-80
2023/02/27 00:51:34;;;;;;;1.15;1.00;;;;;;;;;;5054918;28;20308;-80
2023/02/27 00:54:02;;;;;;;1.42;1.00;;;;;;;;;;5055286;28;20706;-80
2023/02/27 00:56:30;;;;;;;1.20;1.10;;;;;;;;;;5054363;28;20202;-82
2023/02/27 00:58:57;;;;;;;1.88;1.35;;;;;;;;;;5053080;28;20240;-82
2023/02/27 01:01:26;;;;;;;2.65;1.40;;;;;;;;;;5053564;28;20352;-82
2023/02/27 01:03:54;;;;;;;1.55;1.45;;;;;;;;;;5054280;28;20208;-83
2023/02/27 01:06:21;;;;;;;1.77;1.67;;;;;;;;;;5054143;28;20208;-81
2023/02/27 01:08:49;;;;;;;1.30;1.20;;;;;;;;;;5054088;28;20225;-82
2023/02/27 01:11:16;;;;;;;1.00;1.00;;;;;;;;;;5054115;28;20293;-80
2023/02/27 01:13:45;;;;;;;1.38;1.10;;;;;;;;;;5053703;28;20308;-81
2023/02/27 01:16:12;;;;;;;1.30;1.20;;;;;;;;;;5053949;28;20905;-82
2023/02/27 01:18:41;;;;;;;1.15;1.10;;;;;;;;;;5053316;28;20217;-83
2023/02/27 01:21:09;;;;;;;1.90;1.80;;;;;;;;;;5053507;28;20226;-81
2023/02/27 01:23:36;;;;;;;1.00;1.00;;;;;;;;;;5053694;28;20674;-82
2023/02/27 01:26:04;;;;;;;1.20;1.17;;;;;;;;;;5057279;28;20283;-82
2023/02/27 01:28:32;;;;;;;1.10;0.90;;;;;;;;;;5065085;28;20225;-81
2023/02/27 01:30:59;;;;;;;3.00;1.38;;;;;;;;;;5073840;28;20297;-82
2023/02/27 01:33:27;;;;;;;1.38;1.23;;;;;;;;;;5072766;28;20208;-80
2023/02/27 01:35:56;;;;;;;1.65;1.40;;;;;;;;;;5073752;28;20246;-81
2023/02/27 01:38:24;;;;;;;2.42;1.17;;;;;;;;;;5072666;28;20232;-81
2023/02/27 01:40:51;;;;;;;0.88;0.88;;;;;;;;;;5073442;28;20235;-80
2023/02/27 01:43:21;;;;;;;2.03;1.60;;;;;;;;;;5072849;28;20293;-83
2023/02/27 01:45:49;;;;;;;1.70;1.20;;;;;;;;;;5073459;28;20200;-83
2023/02/27 01:48:20;;;;;;;1.45;1.35;;;;;;;;;;5091248;22;20236;-78
2023/02/27 01:50:53;;;;;;;1.33;1.00;;;;;;;;;;5052438;28;20230;-77
2023/02/27 01:53:24;;;;;;;1.50;1.20;;;;;;;;;;5052978;28;20236;-78
2023/02/27 01:55:54;;;;;;;1.27;1.17;;;;;;;;;;5046849;28;20214;-79
2023/02/27 01:58:22;;;;;;;2.65;1.30;;;;;;;;;;5031522;28;20230;-78
2023/02/27 02:00:49;;;;;;;1.60;1.50;;;;;;;;;;5032029;28;20702;-79
2023/02/27 02:03:23;;;;;;;2.03;1.00;;;;;;;;;;5030600;28;20289;-79
2023/02/27 02:05:53;;;;;;;1.70;1.38;;;;;;;;;;5032378;28;20313;-78
2023/02/27 02:08:26;;;;;;;0.95;0.90;;;;;;;;;;5031828;28;20222;-79
2023/02/27 02:10:54;;;;;;;1.30;1.30;;;;;;;;;;5032089;28;20202;-79
2023/02/27 02:13:23;;;;;;;1.95;1.25;;;;;;;;;;5032088;28;20230;-78
2023/02/27 02:16:13;;;;;;;1.40;1.30;;;;;;;;;;5032733;28;20206;-78
2023/02/27 02:18:50;;;;;;;0.82;0.82;;;;;;;;;;5032855;28;20777;-77
2023/02/27 02:22:00;;;;;;;1.33;1.02;;;;;;;;;;5033462;28;20228;-77
2023/02/27 02:25:13;;;;;;;1.98;1.15;;;;;;;;;;5032551;28;20675;-78
2023/02/27 02:27:53;;;;;;;1.50;1.20;;;;;;;;;;5032577;28;20598;-78
2023/02/27 02:31:13;;;;;;;1.42;1.33;;;;;;;;;;5031485;28;20208;-78
2023/02/27 02:34:06;;;;;;;1.02;1.02;;;;;;;;;;5031154;28;20214;-77
2023/02/27 02:37:21;;;;;;;1.58;1.38;;;;;;;;;;5031517;28;20209;-78
2023/02/27 02:40:13;;;;;;;3.50;1.48;;;;;;;;;;5032169;28;20233;-78
2023/02/27 02:42:47;;;;;;;1.75;1.65;;;;;;;;;;5031930;28;20224;-78
2023/02/27 02:45:21;;;;;;;2.53;1.80;;;;;;;;;;5032969;28;20308;-79
2023/02/27 02:48:08;;;;;;;1.27;1.17;;;;;;;;;;5031660;28;20198;-79
2023/02/27 02:50:40;;;;;;;1.25;1.20;;;;;;;;;;5032995;28;20206;-78
2023/02/27 02:53:14;;;;;;;0.95;0.95;;;;;;;;;;5030858;28;20202;-78
2023/02/27 02:55:47;;;;;;;1.02;1.02;;;;;;;;;;5036649;28;20206;-78
2023/02/27 02:58:21;;;;;;;2.85;1.15;;;;;;;;;;5051614;28;20229;-78
2023/02/27 03:00:51;;;;;;;1.30;1.20;;;;;;;;;;5052824;28;20208;-78
2023/02/27 03:03:22;;;;;;;1.17;1.10;;;;;;;;;;5052360;28;20209;-76
2023/02/27 03:05:54;;;;;;;1.58;1.27;;;;;;;;;;5052033;28;20205;-79
2023/02/27 03:08:24;;;;;;;1.15;1.15;;;;;;;;;;5052365;28;20312;-78
2023/02/27 03:10:56;;;;;;;1.27;1.17;;;;;;;;;;5055124;28;20674;-76
2023/02/27 03:13:28;;;;;;;1.00;1.00;;;;;;;;;;5057359;28;20209;-78
2023/02/27 03:16:01;;;;;;;1.02;1.02;;;;;;;;;;5054491;28;20212;-78
2023/02/27 03:18:34;;;;;;;0.93;0.93;;;;;;;;;;5053392;28;20316;-78
2023/02/27 03:21:07;;;;;;;1.17;1.17;;;;;;;;;;5054305;28;20291;-78
2023/02/27 03:23:40;;;;;;;1.63;1.23;;;;;;;;;;5054318;28;20197;-78
2023/02/27 03:26:09;;;;;;;1.67;1.10;;;;;;;;;;5054155;28;20212;-78
2023/02/27 03:28:43;;;;;;;1.65;1.10;;;;;;;;;;5051243;28;20717;-78
2023/02/27 03:31:17;;;;;;;0.90;0.90;;;;;;;;;;5052021;28;20208;-77
2023/02/27 03:33:49;;;;;;;1.50;1.40;;;;;;;;;;5051936;28;20224;-78
2023/02/27 03:36:26;;;;;;;2.90;1.20;;;;;;;;;;5054907;28;20197;-78
2023/02/27 03:39:02;;;;;;;2.35;1.23;;;;;;;;;;5055432;28;20870;-78
2023/02/27 03:41:35;;;;;;;2.97;1.30;;;;;;;;;;5056051;28;20229;-78
2023/02/27 03:44:08;;;;;;;1.08;0.90;;;;;;;;;;5057206;28;20277;-78
2023/02/27 03:46:35;;;;;;;1.33;1.00;;;;;;;;;;5057115;28;20212;-78
2023/02/27 03:49:03;;;;;;;1.20;1.10;;;;;;;;;;5055247;28;20233;-79
2023/02/27 03:51:31;;;;;;;1.08;1.05;;;;;;;;;;5055310;28;20198;-78
2023/02/27 03:54:03;;;;;;;1.08;0.98;;;;;;;;;;5053300;28;20591;-78
2023/02/27 03:56:38;;;;;;;1.95;1.00;;;;;;;;;;5055497;28;20212;-78
2023/02/27 03:59:06;;;;;;;0.75;0.75;;;;;;;;;;5054892;28;20606;-78
2023/02/27 04:01:33;;;;;;;0.95;0.93;;;;;;;;;;5054934;28;20233;-78
2023/02/27 04:04:05;;;;;;;1.10;1.00;;;;;;;;;;5053961;28;20584;-78
2023/02/27 04:09:37;;;;;;;2.08;1.05;;;;;;;;;;5054698;28;20296;-78
2023/02/27 04:12:23;;;;;;;1.10;1.05;;;;;;;;;;5055604;28;20555;-78
2023/02/27 04:15:02;;;;;;;3.92;1.10;;;;;;;;;;5054426;28;20684;-78
2023/02/27 04:17:31;;;;;;;1.05;0.80;;;;;;;;;;5054998;28;20198;-78
2023/02/27 04:20:26;;;;;;;1.10;0.90;;;;;;;;;;5053823;28;20603;-78
2023/02/27 04:22:58;;;;;;;1.13;1.02;;;;;;;;;;5054587;28;20221;-78
2023/02/27 04:25:52;;;;;;;1.40;1.10;;;;;;;;;;5052838;28;20215;-78
2023/02/27 04:28:27;;;;;;;1.80;1.23;;;;;;;;;;5053268;28;20217;-78
2023/02/27 04:31:07;;;;;;;1.17;1.00;;;;;;;;;;5054778;28;20201;-77
2023/02/27 04:33:43;;;;;;;1.35;1.20;;;;;;;;;;5055208;28;20225;-78
2023/02/27 04:36:16;;;;;;;0.88;0.88;;;;;;;;;;5055035;28;20201;-78
2023/02/27 04:38:49;;;;;;;0.90;0.90;;;;;;;;;;5054239;28;20226;-78
2023/02/27 04:41:22;;;;;;;1.52;1.20;;;;;;;;;;5054884;28;20672;-78
2023/02/27 04:43:52;;;;;;;1.30;1.20;;;;;;;;;;5053719;28;20279;-78
2023/02/27 04:46:24;;;;;;;2.25;1.25;;;;;;;;;;5071168;28;20197;-78
2023/02/27 04:48:54;;;;;;;0.90;0.90;;;;;;;;;;5073646;28;20235;-79
2023/02/27 04:51:25;;;;;;;1.27;1.20;;;;;;;;;;5074398;28;20692;-79
2023/02/27 04:53:57;;;;;;;2.33;1.02;;;;;;;;;;5072106;28;20201;-79
2023/02/27 04:56:29;;;;;;;1.42;0.90;;;;;;;;;;5062592;28;20600;-78
2023/02/27 04:59:01;;;;;;;1.95;1.10;;;;;;;;;;5052863;28;20611;-78
2023/02/27 05:01:36;;;;;;;1.60;1.15;;;;;;;;;;5058501;28;20198;-78
2023/02/27 05:04:04;;;;;;;1.48;1.17;;;;;;;;;;5062868;28;20213;-78
2023/02/27 05:06:35;;;;;;;1.02;0.95;;;;;;;;;;5061129;28;20644;-78
2023/02/27 05:09:11;;;;;;;0.95;0.95;;;;;;;;;;5060817;28;20308;-79
2023/02/27 05:11:45;;;;;;;1.40;1.30;;;;;;;;;;5060229;28;20653;-79
2023/02/27 05:14:18;;;;;;;1.23;1.05;;;;;;;;;;5058578;28;20251;-80
2023/02/27 05:16:51;;;;;;;1.13;1.05;;;;;;;;;;5058724;28;20205;-78
2023/02/27 05:19:19;;;;;;;0.80;0.80;;;;;;;;;;5057057;28;20316;-78
2023/02/27 05:21:52;;;;;;;1.70;1.17;;;;;;;;;;5057419;28;20209;-77
2023/02/27 05:24:30;;;;;;;0.98;0.98;;;;;;;;;;5055712;28;20368;-78
2023/02/27 05:27:16;;;;;;;1.20;1.10;;;;;;;;;;5056152;28;20270;-78
2023/02/27 05:29:49;;;;;;;0.90;0.90;;;;;;;;;;5055363;28;20283;-78
2023/02/27 05:32:27;;;;;;;1.02;1.02;;;;;;;;;;5056556;28;20202;-78
2023/02/27 05:35:00;;;;;;;0.90;0.90;;;;;;;;;;5054307;28;20205;-78
2023/02/27 05:37:32;;;;;;;1.75;1.52;;;;;;;;;;5054245;28;20210;-79
2023/02/27 05:40:05;;;;;;;4.40;1.02;;;;;;;;;;5053250;28;20314;-78
2023/02/27 05:42:36;;;;;;;0.82;0.82;;;;;;;;;;5053574;28;20221;-80
2023/02/27 05:45:09;;;;;;;0.80;0.80;;;;;;;;;;5054378;28;20193;-81
2023/02/27 05:47:41;;;;;;;1.15;1.05;;;;;;;;;;5053270;28;20253;-81
2023/02/27 05:50:11;;;;;;;0.80;0.80;;;;;;;;;;5052292;28;20312;-81
2023/02/27 05:52:40;;;;;;;1.50;1.20;;;;;;;;;;5052848;28;20201;-81
2023/02/27 05:55:14;;;;;;;1.23;1.10;;;;;;;;;;5051986;28;20280;-81
2023/02/27 05:57:44;;;;;;;1.52;0.90;;;;;;;;;;5033052;28;20563;-81
2023/02/27 06:00:16;;;;;;;1.85;1.30;;;;;;;;;;5031318;28;20232;-81
2023/02/27 06:02:44;;;;;;;1.80;1.20;;;;;;;;;;5032895;28;20222;-81
2023/02/27 06:05:14;;;;;;;1.38;1.27;;;;;;;;;;5034355;28;20199;-81
2023/02/27 06:07:42;;;;;;;1.45;1.20;;;;;;;;;;5035037;28;20769;-81
2023/02/27 06:10:16;;;;;;;1.23;1.10;;;;;;;;;;5033897;28;20261;-82
2023/02/27 06:12:44;;;;;;;0.88;0.88;;;;;;;;;;5034840;28;20206;-81
2023/02/27 06:15:13;;;;;;;1.60;1.33;;;;;;;;;;5035201;28;20293;-81
2023/02/27 06:17:41;;;;;;;2.35;1.48;;;;;;;;;;5035419;28;20604;-82
2023/02/27 06:20:11;;;;;;;1.77;1.30;;;;;;;;;;5034341;28;20313;-81
2023/02/27 06:22:38;;;;;;;1.13;0.95;;;;;;;;;;5036334;28;20293;-81
2023/02/27 06:25:07;;;;;;;1.00;1.00;;;;;;;;;;5035804;28;20289;-82
2023/02/27 06:27:34;;;;;;;1.55;1.38;;;;;;;;;;5054685;28;20293;-81
2023/02/27 06:30:02;;;;;;;2.10;1.40;;;;;;;;;;5054160;28;20316;-82
2023/02/27 06:32:31;;;;;;;1.20;1.10;;;;;;;;;;5062639;28;20264;-82
2023/02/27 06:34:58;;;;;;;1.35;1.35;;;;;;;;;;5070644;28;20236;-82
2023/02/27 06:37:26;;;;;;;1.30;1.20;;;;;;;;;;5060052;28;20216;-83
2023/02/27 06:39:53;;;;;;;1.30;1.20;;;;;;;;;;5053974;28;20300;-82
2023/02/27 06:42:21;;;;;;;1.65;1.40;;;;;;;;;;5054692;28;20638;-81
2023/02/27 06:44:48;;;;;;;1.92;1.83;;;;;;;;;;5054368;28;20232;-82
2023/02/27 06:47:16;;;;;;;1.02;1.00;;;;;;;;;;5054684;28;20692;-81
2023/02/27 06:49:45;;;;;;;1.33;1.23;;;;;;;;;;5051920;28;20736;-80
2023/02/27 06:52:13;;;;;;;1.67;1.50;;;;;;;;;;5052399;28;20652;-85
2023/02/27 06:54:40;;;;;;;0.95;0.95;;;;;;;;;;5052880;28;20284;-81
2023/02/27 06:57:08;;;;;;;4.55;1.88;;;;;;;;;;5054789;28;20228;-82
2023/02/27 06:59:35;;;;;;;1.88;1.73;;;;;;;;;;5054015;28;20285;-81
2023/02/27 07:02:03;;;;;;;1.25;1.15;;;;;;;;;;5055862;28;20293;-81
2023/02/27 07:04:30;;;;;;;1.20;1.20;;;;;;;;;;5053279;28;20226;-81
2023/02/27 07:06:59;;;;;;;4.00;1.13;;;;;;;;;;5053661;28;20255;-81
2023/02/27 07:09:27;;;;;;;1.10;1.00;;;;;;;;;;5052448;28;20236;-80
2023/02/27 07:11:54;;;;;;;4.28;1.75;;;;;;;;;;5061839;28;20201;-81
2023/02/27 07:14:22;;;;;;;1.65;1.27;;;;;;;;;;5068049;28;20288;-80
2023/02/27 07:16:53;;;;;;;1.33;1.20;;;;;;;;;;5076027;28;20205;-80
2023/02/27 07:19:21;;;;;;;1.00;1.00;;;;;;;;;;5076032;28;20221;-80
2023/02/27 07:21:48;;;;;;;1.30;1.20;;;;;;;;;;5076171;28;20201;-81
2023/02/27 07:24:18;;;;;;;1.63;1.25;;;;;;;;;;5075821;28;20221;-80
2023/02/27 07:26:45;;;;;;;2.15;1.20;;;;;;;;;;5076492;28;20208;-81
2023/02/27 07:29:13;;;;;;;1.33;1.13;;;;;;;;;;5075399;28;20312;-80
2023/02/27 07:31:41;;;;;;;3.45;1.40;;;;;;;;;;5076243;28;20197;-83
2023/02/27 07:34:10;;;;;;;1.00;1.00;;;;;;;;;;5076458;28;20293;-81
2023/02/27 07:36:38;;;;;;;2.40;1.52;;;;;;;;;;5075451;28;20197;-83
2023/02/27 07:39:07;;;;;;;2.00;1.00;;;;;;;;;;5067788;28;20711;-81
2023/02/27 07:41:36;;;;;;;1.27;1.00;;;;;;;;;;5055532;28;20209;-83
2023/02/27 07:44:05;;;;;;;0.90;0.90;;;;;;;;;;5055908;28;20318;-83
2023/02/27 07:46:33;;;;;;;1.48;0.82;;;;;;;;;;5055117;28;20206;-84
2023/02/27 07:49:00;;;;;;;3.20;1.27;;;;;;;;;;5073414;22;20301;-82
2023/02/27 07:51:28;;;;;;;1.10;1.00;;;;;;;;;;5062522;22;20280;-83
2023/02/27 07:53:57;;;;;;;1.08;0.98;;;;;;;;;;5058289;28;20289;-84
2023/02/27 07:56:25;;;;;;;1.02;0.98;;;;;;;;;;5057909;28;20206;-84
2023/02/27 07:58:54;;;;;;;2.45;1.98;;;;;;;;;;5058554;28;20292;-84
2023/02/27 08:01:21;;;;;;;0.90;0.90;;;;;;;;;;5058607;28;20253;-85
2023/02/27 08:03:49;;;;;;;1.27;1.17;;;;;;;;;;5058218;28;20261;-84
2023/02/27 08:06:16;;;;;;;1.60;1.50;;;;;;;;;;5058536;28;20233;-85
2023/02/27 08:08:44;;;;;;;3.03;1.48;;;;;;;;;;5057858;28;20307;-84
2023/02/27 08:11:12;;;;;;;1.70;1.60;;;;;;;;;;5058270;28;20221;-84
2023/02/27 08:13:39;;;;;;;3.05;1.80;;;;;;;;;;5058592;28;20693;-83
2023/02/27 08:16:09;;;;;;;2.83;1.90;;;;;;;;;;5058030;28;20217;-83
2023/02/27 08:18:38;;;;;;;1.92;1.48;;;;;;;;;;5056631;28;20649;-84
2023/02/27 08:21:06;;;;;;;3.13;2.25;;;;;;;;;;5055898;28;20655;-84
2023/02/27 08:23:34;;;;;;;3.22;1.80;;;;;;;;;;5056616;28;20244;-83
2023/02/27 08:26:02;;;;;;;2.33;1.60;;;;;;;;;;5056667;28;20639;-84
2023/02/27 08:28:29;;;;;;;2.42;2.10;;;;;;;;;;5056937;28;20559;-84
2023/02/27 08:30:57;;;;;;;3.72;2.03;;;;;;;;;;5057095;28;20317;-84
2023/02/27 08:33:31;;;;;;;2.35;2.05;;;;;;;;;;5056749;28;20674;-86
2023/02/27 08:35:59;;;;;;;2.67;1.98;;;;;;;;;;5056807;28;20201;-84
2023/02/27 08:38:26;;;;;;;2.08;1.75;;;;;;;;;;5056083;28;20274;-84
2023/02/27 08:40:54;;;;;;;2.33;2.03;;;;;;;;;;5056026;28;20669;-83
2023/02/27 08:43:22;;;;;;;3.47;2.38;;;;;;;;;;5055574;28;20292;-83
2023/02/27 08:45:49;;;;;;;2.60;2.00;;;;;;;;;;5055122;28;20777;-84
2023/02/27 08:48:17;;;;;;;4.32;2.50;;;;;;;;;;5054816;28;20212;-84
2023/02/27 08:50:47;;;;;;;4.65;2.63;;;;;;;;;;5054333;28;20520;-85
2023/02/27 08:53:14;;;;;;;1.75;1.65;;;;;;;;;;5055381;28;20244;-85
2023/02/27 08:55:42;;;;;;;2.17;1.98;;;;;;;;;;5055096;28;20683;-84
2023/02/27 08:58:10;;;;;;;3.92;2.15;;;;;;;;;;5055437;28;20198;-84
2023/02/27 09:00:38;;;;;;;3.28;1.80;;;;;;;;;;5055344;28;20229;-84
2023/02/27 09:03:05;;;;;;;1.85;1.75;;;;;;;;;;5054730;28;20202;-84
2023/02/27 09:05:34;;;;;;;2.80;1.98;;;;;;;;;;5053904;28;20608;-84
2023/02/27 09:08:03;;;;;;;4.30;2.15;;;;;;;;;;5054341;28;20208;-84
2023/02/27 09:10:31;;;;;;;2.08;1.60;;;;;;;;;;5054960;28;20222;-83
2023/02/27 09:12:59;;;;;;;3.30;1.90;;;;;;;;;;5054793;28;20201;-82
2023/02/27 09:15:27;;;;;;;3.00;2.50;;;;;;;;;;5054868;28;20292;-85
2023/02/27 09:17:59;;;;;;;3.75;2.90;;;;;;;;;;5054826;28;20237;-85
2023/02/27 09:20:26;;;;;;;2.00;1.75;;;;;;;;;;5055239;28;20225;-85
2023/02/27 09:22:54;;;;;;;2.10;1.75;;;;;;;;;;5055494;28;20292;-84
2023/02/27 09:25:23;;;;;;;2.67;1.60;;;;;;;;;;5055284;28;20287;-85
2023/02/27 09:27:51;;;;;;;3.33;2.20;;;;;;;;;;5055348;28;20205;-84
2023/02/27 09:30:19;;;;;;;2.10;1.67;;;;;;;;;;5055324;28;20639;-85
2023/02/27 09:32:46;;;;;;;1.90;1.80;;;;;;;;;;5055843;28;20255;-84
2023/02/27 09:35:15;;;;;;;3.88;1.90;;;;;;;;;;5054916;28;20197;-84
2023/02/27 09:37:43;;;;;;;3.30;2.08;;;;;;;;;;5055230;28;20212;-85
2023/02/27 09:40:15;;;;;;;3.95;2.10;;;;;;;;;;5040350;28;20226;-85
2023/02/27 09:42:46;;;;;;;2.42;2.17;;;;;;;;;;5036825;28;20225;-84
2023/02/27 09:45:22;;;;;;;2.63;2.42;;;;;;;;;;5036363;28;20214;-85
2023/02/27 09:47:54;;;;;;;2.53;2.33;;;;;;;;;;5037388;28;20580;-84
2023/02/27 09:50:43;;;;;;;5.18;2.22;;;;;;;;;;5036183;28;20226;-85
2023/02/27 09:53:15;;;;;;;2.90;2.28;;;;;;;;;;5035618;28;20552;-85
2023/02/27 09:55:46;;;;;;;3.25;2.13;;;;;;;;;;5036392;28;20210;-84
2023/02/27 09:58:32;;;;;;;3.80;2.00;;;;;;;;;;5036366;28;20218;-84
2023/02/27 10:01:04;;;;;;;3.45;2.10;;;;;;;;;;5036179;28;20237;-85
2023/02/27 10:03:48;;;;;;;2.13;1.92;;;;;;;;;;5035785;28;20236;-84
2023/02/27 10:06:25;;;;;;;2.75;1.50;;;;;;;;;;5036012;28;20248;-85
2023/02/27 10:09:05;;;;;;;2.00;1.77;;;;;;;;;;5035557;28;20189;-85
2023/02/27 10:11:50;;;;;;;2.22;1.85;;;;;;;;;;5036418;28;20229;-85
2023/02/27 10:14:48;;;;;;;4.03;1.63;;;;;;;;;;5036650;28;20186;-86
2023/02/27 10:17:22;;;;;;;1.83;1.50;;;;;;;;;;5036618;28;20194;-84
2023/02/27 10:19:50;;;;;;;1.10;1.10;;;;;;;;;;5035874;28;20236;-84
2023/02/27 10:22:24;;;;;;;2.70;1.55;;;;;;;;;;5035581;28;20256;-85
2023/02/27 10:24:55;;;;;;;2.03;1.42;;;;;;;;;;5036140;28;20210;-86
2023/02/27 10:27:23;;;;;;;4.10;3.63;;;;;;;;;;5036650;28;20190;-85
2023/02/27 10:29:53;;;;;;;1.67;1.58;;;;;;;;;;5035764;28;20191;-85
2023/02/27 10:32:26;;;;;;;1.00;0.95;;;;;;;;;;5036832;28;20249;-85
2023/02/27 10:35:00;;;;;;;4.15;1.70;;;;;;;;;;5036761;28;20225;-86
2023/02/27 10:37:29;;;;;;;7.85;5.00;;;;;;;;;;5048474;28;20693;-86
2023/02/27 10:39:59;;;;;;;5.07;1.63;;;;;;;;;;5055457;28;20222;-87
2023/02/27 10:42:31;;;;;;;2.17;1.67;;;;;;;;;;5055807;28;20229;-87
2023/02/27 10:45:02;;;;;;;3.42;1.30;;;;;;;;;;5057952;28;20197;-88
2023/02/27 10:47:29;;;;;;;1.17;1.15;;;;;;;;;;5060014;28;20224;-87
2023/02/27 10:49:59;;;;;;;1.10;1.00;;;;;;;;;;5060000;28;20625;-86
2023/02/27 10:52:27;;;;;;;1.48;0.90;;;;;;;;;;5060100;28;20193;-86
2023/02/27 10:54:54;;;;;;;1.23;1.20;;;;;;;;;;5058560;28;20206;-86
2023/02/27 10:57:29;;;;;;;1.65;0.90;;;;;;;;;;5057743;28;20233;-86
2023/02/27 11:00:03;;;;;;;2.20;2.00;;;;;;;;;;5059303;28;20221;-87
2023/02/27 11:02:36;;;;;;;1.23;1.13;;;;;;;;;;5059442;28;20601;-87
2023/02/27 11:05:06;;;;;;;3.22;2.92;;;;;;;;;;5060453;28;20209;-87
2023/02/27 11:07:36;;;;;;;2.47;2.10;;;;;;;;;;5061415;28;20218;-87
2023/02/27 11:10:18;;;;;;;2.85;2.10;;;;;;;;;;5060684;28;20275;-86
2023/02/27 11:13:01;;;;;;;1.20;1.20;;;;;;;;;;5060023;28;20243;-87
2023/02/27 11:15:34;;;;;;;1.58;0.98;;;;;;;;;;5058162;28;20272;-87
2023/02/27 11:18:25;;;;;;;0.93;0.93;;;;;;;;;;5058035;28;20674;-86
2023/02/27 11:20:53;;;;;;;0.90;0.90;;;;;;;;;;5058156;28;20661;-86
2023/02/27 11:23:24;;;;;;;1.50;1.30;;;;;;;;;;5058620;28;20198;-86
2023/02/27 11:25:55;;;;;;;1.50;1.00;;;;;;;;;;5056792;28;20259;-85
2023/02/27 11:28:25;;;;;;;1.92;1.48;;;;;;;;;;5056014;28;20186;-86
2023/02/27 11:31:04;;;;;;;1.55;1.45;;;;;;;;;;5056501;28;20225;-85
2023/02/27 11:33:38;;;;;;;1.05;0.95;;;;;;;;;;5059428;28;20216;-86
2023/02/27 11:36:08;;;;;;;0.93;0.90;;;;;;;;;;5059438;28;20189;-86
2023/02/27 11:38:35;;;;;;;1.75;1.20;;;;;;;;;;5059854;28;20241;-86
2023/02/27 11:41:05;;;;;;;0.90;0.90;;;;;;;;;;5059355;28;20305;-86
2023/02/27 11:43:36;;;;;;;1.30;1.20;;;;;;;;;;5057460;28;20197;-85
2023/02/27 11:46:08;;;;;;;1.10;1.10;;;;;;;;;;5057220;28;20597;-86
2023/02/27 11:48:39;;;;;;;1.25;1.15;;;;;;;;;;5057175;28;20247;-85
2023/02/27 11:51:26;;;;;;;1.85;1.75;;;;;;;;;;5056887;28;20912;-85
2023/02/27 11:54:08;;;;;;;2.20;1.80;;;;;;;;;;5057623;28;20225;-86
2023/02/27 11:56:43;;;;;;;1.98;1.50;;;;;;;;;;5057387;28;20206;-86
2023/02/27 11:59:38;;;;;;;4.15;2.53;;;;;;;;;;5057232;28;20220;-86
2023/02/27 12:02:17;;;;;;;1.95;1.85;;;;;;;;;;5057596;28;20197;-85
2023/02/27 12:05:05;;;;;;;2.40;1.33;;;;;;;;;;5058130;28;20209;-85
2023/02/27 12:07:45;;;;;;;1.67;1.45;;;;;;;;;;5057614;28;20229;-85
2023/02/27 12:10:32;;;;;;;1.63;1.40;;;;;;;;;;5057528;28;20279;-85
2023/02/27 12:13:09;;;;;;;4.13;3.72;;;;;;;;;;5056140;28;20201;-85
2023/02/27 12:15:44;;;;;;;2.83;2.63;;;;;;;;;;5057571;28;20649;-85
2023/02/27 12:18:18;;;;;;;5.97;5.38;;;;;;;;;;5057434;28;20178;-85
2023/02/27 12:20:57;;;;;;;4.72;3.95;;;;;;;;;;5057886;28;20264;-85
2023/02/27 12:26:33;;;;;;;1.90;1.42;;;;;;;;;;5056958;28;20225;-85
2023/02/27 12:29:11;;;;;;;1.27;1.17;;;;;;;;;;5058133;28;20272;-86
2023/02/27 12:31:48;;;;;;;1.95;1.38;;;;;;;;;;5058337;28;20275;-86
2023/02/27 12:34:27;;;;;;;1.40;1.30;;;;;;;;;;5057826;28;20178;-86
2023/02/27 12:37:01;;;;;;;2.38;1.83;;;;;;;;;;5057231;28;20235;-85
2023/02/27 12:39:29;;;;;;;2.10;1.63;;;;;;;;;;5057756;28;20174;-86
2023/02/27 12:42:35;;;;;;;5.90;5.13;;;;;;;;;;5057211;28;20288;-86
2023/02/27 12:45:22;;;;;;;3.42;1.98;;;;;;;;;;5050141;28;20674;-85
2023/02/27 12:47:58;;;;;;;5.13;4.38;;;;;;;;;;5056723;28;20240;-86
2023/02/27 12:50:45;;;;;;;4.45;2.42;;;;;;;;;;5056136;28;20267;-86
2023/02/27 12:53:31;;;;;;;1.77;1.67;;;;;;;;;;5056845;28;20210;-86
2023/02/27 12:56:08;;;;;;;0.80;0.80;;;;;;;;;;5056816;28;20273;-86
2023/02/27 12:58:50;;;;;;;1.40;1.30;;;;;;;;;;5056494;28;20232;-86
2023/02/27 13:01:32;;;;;;;0.82;0.82;;;;;;;;;;5056002;28;20307;-86
2023/02/27 13:04:03;;;;;;;2.78;0.82;;;;;;;;;;5055965;28;20216;-86
2023/02/27 13:06:40;;;;;;;0.90;0.90;;;;;;;;;;5055735;28;20198;-87
2023/02/27 13:09:20;;;;;;;1.05;0.90;;;;;;;;;;5055440;28;20603;-86
2023/02/27 13:11:57;;;;;;;1.23;0.90;;;;;;;;;;5056536;28;20217;-86
2023/02/27 13:14:36;;;;;;;1.08;0.80;;;;;;;;;;5056580;28;20228;-85
2023/02/27 13:17:10;;;;;;;1.67;1.40;;;;;;;;;;5055921;28;20209;-85
2023/02/27 13:19:42;;;;;;;1.10;1.02;;;;;;;;;;5056632;28;20206;-85
2023/02/27 13:22:18;;;;;;;2.50;1.27;;;;;;;;;;5056350;28;20272;-86
2023/02/27 13:24:49;;;;;;;1.60;1.50;;;;;;;;;;5056276;28;20272;-86
2023/02/27 13:27:22;;;;;;;1.30;1.20;;;;;;;;;;5056669;28;20214;-86
2023/02/27 13:30:01;;;;;;;0.98;0.98;;;;;;;;;;5056413;28;20208;-86
2023/02/27 13:32:34;;;;;;;1.80;0.93;;;;;;;;;;5056209;28;20221;-86
2023/02/27 13:35:13;;;;;;;1.65;0.88;;;;;;;;;;5055873;28;20178;-86
2023/02/27 13:37:54;;;;;;;0.82;0.82;;;;;;;;;;5055986;28;20272;-85
2023/02/27 13:40:35;;;;;;;1.73;1.20;;;;;;;;;;5056394;28;20260;-85
2023/02/27 13:43:25;;;;;;;2.75;1.85;;;;;;;;;;5056826;28;20198;-85
2023/02/27 13:45:56;;;;;;;1.45;1.05;;;;;;;;;;5056381;28;20539;-85
2023/02/27 13:48:45;;;;;;;1.30;1.17;;;;;;;;;;5055913;28;20685;-86
2023/02/27 13:51:58;;;;;;;1.10;1.10;;;;;;;;;;5077800;22;20771;-85
2023/02/27 13:54:31;;;;;;;1.60;1.20;;;;;;;;;;5064330;28;20204;-84
2023/02/27 13:57:26;;;;;;;1.00;1.00;;;;;;;;;;5074548;28;20193;-87
2023/02/27 14:00:03;;;;;;;0.63;0.63;;;;;;;;;;5064897;28;20201;-85
2023/02/27 14:02:44;;;;;;;1.10;1.05;;;;;;;;;;5054477;28;20552;-84
2023/02/27 14:05:15;;;;;;;1.23;0.73;;;;;;;;;;5055435;28;20227;-86
2023/02/27 14:07:58;;;;;;;0.80;0.80;;;;;;;;;;5054071;28;20220;-87
2023/02/27 14:10:28;;;;;;;1.30;1.00;;;;;;;;;;5053552;28;20217;-84
2023/02/27 14:12:57;;;;;;;1.20;1.10;;;;;;;;;;5051242;28;20609;-85
2023/02/27 14:15:59;;;;;;;3.53;3.22;;;;;;;;;;5033872;28;20206;-85
2023/02/27 14:18:56;;;;;;;2.13;1.77;;;;;;;;;;5033786;28;20232;-85
2023/02/27 14:21:57;;;;;;;2.00;1.55;;;;;;;;;;5034203;28;20226;-85
2023/02/27 14:24:32;;;;;;;1.45;1.15;;;;;;;;;;5034690;28;20204;-85
2023/02/27 14:27:01;;;;;;;1.23;1.23;;;;;;;;;;5035077;28;20197;-87
2023/02/27 14:29:32;;;;;;;2.38;1.80;;;;;;;;;;5035060;28;20357;-86
2023/02/27 14:32:02;;;;;;;1.58;1.40;;;;;;;;;;5035705;28;20230;-86
2023/02/27 14:34:30;;;;;;;1.08;1.00;;;;;;;;;;5034170;28;20186;-86
2023/02/27 14:37:01;;;;;;;1.00;1.00;;;;;;;;;;5034293;28;20817;-85
2023/02/27 14:39:32;;;;;;;0.90;0.90;;;;;;;;;;5035196;28;20198;-85
2023/02/27 14:42:16;;;;;;;0.82;0.82;;;;;;;;;;5035125;28;20232;-86
2023/02/27 14:44:47;;;;;;;1.10;1.00;;;;;;;;;;5034705;28;20187;-84
2023/02/27 14:47:19;;;;;;;1.52;1.42;;;;;;;;;;5035624;28;20190;-85
2023/02/27 14:49:48;;;;;;;1.63;1.45;;;;;;;;;;5035748;28;20273;-85
2023/02/27 14:52:21;;;;;;;2.13;1.92;;;;;;;;;;5036301;28;20316;-86
2023/02/27 14:54:49;;;;;;;1.85;1.75;;;;;;;;;;5038884;28;20221;-84
2023/02/27 14:57:22;;;;;;;1.50;1.40;;;;;;;;;;5059203;28;20202;-83
2023/02/27 14:59:51;;;;;;;1.33;1.23;;;;;;;;;;5058911;28;20268;-83
2023/02/27 15:02:25;;;;;;;1.45;1.35;;;;;;;;;;5059122;28;20312;-83
2023/02/27 15:04:56;;;;;;;6.90;5.93;;;;;;;;;;5054541;28;20251;-83
2023/02/27 15:07:25;;;;;;;4.82;4.30;;;;;;;;;;5052897;28;20300;-84
2023/02/27 15:09:55;;;;;;;8.13;6.68;;;;;;;;;;5041912;28;20223;-84
2023/02/27 15:12:25;;;;;;;6.53;5.75;;;;;;;;;;5037615;28;20695;-84
2023/02/27 15:14:57;;;;;;;2.80;2.33;;;;;;;;;;5037015;28;20263;-84
2023/02/27 15:17:28;;;;;;;3.33;3.03;;;;;;;;;;5034504;28;20298;-85
2023/02/27 15:19:59;;;;;;;2.53;1.85;;;;;;;;;;5040496;28;20640;-85
2023/02/27 15:22:31;;;;;;;3.45;2.10;;;;;;;;;;5036723;28;20226;-85
2023/02/27 15:25:00;;;;;;;2.13;1.92;;;;;;;;;;5039038;28;20194;-86